Esplugues de Llobregat, Spain
Current Conditions -  °F | °C
As of 12:00 PM on Sunday 21 Dec 2014 (Local Time) from LEBL Reporting Station
Clear Clear  
Wind Chill: 52°   Ceiling: Unl
Heat Index: 52°   Visibility: 6mi
Dew Point: 41°   Wind: 13mph
Humidity: 67%   Direction: 330°NNW
Pressure: 30.48"   Gusts: NA
Location:  41.38°N, 2.09°E
Report Text: LEBL 211100Z 33011KT 290V360 CAVOK 11/05 Q1032 NOSIG
Loading
Personal Weather Stations






























Interactive Weather Map New forecast layout! Learn more

10-Day Weather Forecast

Advertisements
Track Severe Weather on mobile